Observation data for Reese Center on 06/13/2019      Previous  Date  Next       Current Mesonet Observations  Soil Data  Daily Summary Page  Observations in Plain Language
KREE 130500Z 13008KT 19/10 A3021 RMK A01 T01860099  RH  058%=      5-min Rain = 0
KREE 130505Z 12008KT 19/10 A3021 RMK A01 T01860099  RH  058%=      5-min Rain = 0
KREE 130510Z 12009KT 19/10 A3021 RMK A01 T01870099  RH  058%=      5-min Rain = 0
KREE 130515Z 12008KT 19/10 A3021 RMK A01 T01880099  RH  057%=      5-min Rain = 0
KREE 130520Z 12008KT 19/10 A3021 RMK A01 T01860099  RH  058%=      5-min Rain = 0
KREE 130525Z 13007KT 19/10 A3021 RMK A01 T01850100  RH  059%=      5-min Rain = 0
KREE 130530Z 13007KT 18/10 A3021 RMK A01 T01820101  RH  060%=      5-min Rain = 0
KREE 130535Z 14007KT 18/10 A3021 RMK A01 T01780100  RH  061%=      5-min Rain = 0
KREE 130540Z 13007KT 18/10 A3021 RMK A01 T01760100  RH  062%=      5-min Rain = 0
KREE 130545Z 13007KT 18/10 A3021 RMK A01 T01760100  RH  062%=      5-min Rain = 0
KREE 130550Z 12007KT 18/10 A3021 RMK A01 T01800100  RH  061%=      5-min Rain = 0
KREE 130555Z 12006KT 18/10 A3021 RMK A01 T01760100  RH  062%=      5-min Rain = 0
KREE 130600Z 11006KT 17/10 A3021 RMK A01 T01690101  RH  065%=      5-min Rain = 0
KREE 130605Z 11007KT 16/10 A3021 RMK A01 T01630101  RH  068%=      5-min Rain = 0
KREE 130610Z 10006KT 16/10 A3021 RMK A01 T01610101  RH  069%=      5-min Rain = 0
KREE 130615Z 10007KT 16/10 A3021 RMK A01 T01570102  RH  071%=      5-min Rain = 0
KREE 130620Z 10006KT 16/10 A3021 RMK A01 T01570102  RH  071%=      5-min Rain = 0
KREE 130625Z 10007KT 16/10 A3021 RMK A01 T01560102  RH  071%=      5-min Rain = 0
KREE 130630Z 10008KT 16/10 A3021 RMK A01 T01580102  RH  071%=      5-min Rain = 0
KREE 130635Z 10008KT 16/10 A302 RMK A01 T01600102  RH  070%=      5-min Rain = 0
KREE 130640Z 10008KT 16/10 A302 RMK A01 T01630103  RH  069%=      5-min Rain = 0
KREE 130645Z 11007KT 16/10 A302 RMK A01 T01630103  RH  069%=      5-min Rain = 0
KREE 130650Z 11008KT 16/10 A302 RMK A01 T01640103  RH  068%=      5-min Rain = 0
KREE 130655Z 11007KT 17/10 A302 RMK A01 T01650103  RH  068%=      5-min Rain = 0
KREE 130700Z 11007KT 17/10 A302 RMK A01 T01650103  RH  068%=      5-min Rain = 0
KREE 130705Z 11007KT 16/10 A302 RMK A01 T01640103  RH  068%=      5-min Rain = 0
KREE 130710Z 12007KT 17/10 A302 RMK A01 T01650102  RH  068%=      5-min Rain = 0
KREE 130715Z 12007KT 17/10 A302 RMK A01 T01670102  RH  066%=      5-min Rain = 0
KREE 130720Z 13007KT 17/10 A302 RMK A01 T01690101  RH  065%=      5-min Rain = 0
KREE 130725Z 13007KT 17/10 A302 RMK A01 T01710101  RH  064%=      5-min Rain = 0
KREE 130730Z 13008KT 17/10 A302 RMK A01 T01710100  RH  064%=      5-min Rain = 0
KREE 130735Z 13008KT 17/10 A302 RMK A01 T01700101  RH  065%=      5-min Rain = 0
KREE 130740Z 13008KT 17/10 A302 RMK A01 T01700100  RH  065%=      5-min Rain = 0
KREE 130745Z 13008KT 17/10 A302 RMK A01 T01710100  RH  064%=      5-min Rain = 0
KREE 130750Z 13007KT 17/10 A302 RMK A01 T01690101  RH  065%=      5-min Rain = 0
KREE 130755Z 13008KT 17/10 A302 RMK A01 T01680101  RH  066%=      5-min Rain = 0
KREE 130800Z 13009KT 17/10 A302 RMK A01 T01680101  RH  066%=      5-min Rain = 0
KREE 130805Z 12009KT 17/10 A3019 RMK A01 T01690101  RH  065%=      5-min Rain = 0
KREE 130810Z 13008KT 17/10 A3019 RMK A01 T01690101  RH  065%=      5-min Rain = 0
KREE 130815Z 13008KT 17/10 A3019 RMK A01 T01680101  RH  065%=      5-min Rain = 0
KREE 130820Z 13008KT 17/10 A302 RMK A01 T01680101  RH  066%=      5-min Rain = 0
KREE 130825Z 12007KT 17/10 A302 RMK A01 T01670101  RH  066%=      5-min Rain = 0
KREE 130830Z 12007KT 17/10 A302 RMK A01 T01660101  RH  066%=      5-min Rain = 0
KREE 130835Z 13006KT 17/10 A302 RMK A01 T01650101  RH  067%=      5-min Rain = 0
KREE 130840Z 14007KT 16/10 A302 RMK A01 T01620101  RH  068%=      5-min Rain = 0
KREE 130845Z 14008KT 16/10 A3019 RMK A01 T01610101  RH  069%=      5-min Rain = 0
KREE 130850Z 15007KT 16/10 A3019 RMK A01 T01610101  RH  069%=      5-min Rain = 0
KREE 130855Z 15006KT 16/10 A302 RMK A01 T01600100  RH  069%=      5-min Rain = 0
KREE 130900Z 15005KT 16/10 A302 RMK A01 T01590101  RH  069%=      5-min Rain = 0
KREE 130905Z 14006KT 16/10 A3019 RMK A01 T01560100  RH  071%=      5-min Rain = 0
KREE 130910Z 14007KT 15/10 A3019 RMK A01 T01530100  RH  072%=      5-min Rain = 0
KREE 130915Z 14007KT 16/10 A3019 RMK A01 T01560101  RH  071%=      5-min Rain = 0
KREE 130920Z 14007KT 16/10 A3019 RMK A01 T01570101  RH  071%=      5-min Rain = 0
KREE 130925Z 13008KT 16/10 A3019 RMK A01 T01580101  RH  070%=      5-min Rain = 0
KREE 130930Z 14007KT 16/10 A3019 RMK A01 T01580101  RH  070%=      5-min Rain = 0
KREE 130935Z 14006KT 16/10 A302 RMK A01 T01560101  RH  071%=      5-min Rain = 0
KREE 130940Z 14006KT 15/10 A3019 RMK A01 T01520101  RH  073%=      5-min Rain = 0
KREE 130945Z 13006KT 15/10 A3019 RMK A01 T01510100  RH  073%=      5-min Rain = 0
KREE 130950Z 13007KT 15/10 A3019 RMK A01 T01540100  RH  071%=      5-min Rain = 0
KREE 130955Z 13006KT 16/10 A302 RMK A01 T01550099  RH  071%=      5-min Rain = 0
KREE 131000Z 14005KT 15/10 A302 RMK A01 T01520099  RH  072%=      5-min Rain = 0
KREE 131005Z 16004KT 15/10 A3021 RMK A01 T01490100  RH  073%=      5-min Rain = 0
KREE 131010Z 17004KT 15/10 A3021 RMK A01 T01470099  RH  074%=      5-min Rain = 0
KREE 131015Z 19004KT 15/10 A3021 RMK A01 T01450098  RH  075%=      5-min Rain = 0
KREE 131020Z 22003KT 13/10 A3021 RMK A01 T01340096  RH  079%=      5-min Rain = 0
KREE 131025Z 23003KT 13/10 A3021 RMK A01 T01290096  RH  082%=      5-min Rain = 0
KREE 131030Z 23003KT 13/10 A3021 RMK A01 T01290097  RH  082%=      5-min Rain = 0
KREE 131035Z 22003KT 13/10 A3021 RMK A01 T01320098  RH  081%=      5-min Rain = 0
KREE 131040Z 21003KT 14/10 A3021 RMK A01 T01360099  RH  080%=      5-min Rain = 0
KREE 131045Z 20003KT 14/10 A302 RMK A01 T01380099  RH  078%=      5-min Rain = 0
KREE 131050Z 19003KT 14/10 A302 RMK A01 T01400099  RH  077%=      5-min Rain = 0
KREE 131055Z 18003KT 14/10 A302 RMK A01 T01420099  RH  077%=      5-min Rain = 0
KREE 131100Z 16003KT 14/10 A302 RMK A01 T01440099  RH  076%=      5-min Rain = 0
KREE 131105Z 15003KT 14/10 A302 RMK A01 T01420097  RH  076%=      5-min Rain = 0
KREE 131110Z 16003KT 14/10 A302 RMK A01 T01410098  RH  077%=      5-min Rain = 0
KREE 131115Z 16003KT 14/10 A3021 RMK A01 T01420098  RH  076%=      5-min Rain = 0
KREE 131120Z 16002KT 14/10 A3021 RMK A01 T01420098  RH  076%=      5-min Rain = 0
KREE 131125Z 16002KT 14/10 A3021 RMK A01 T01400097  RH  076%=      5-min Rain = 0
KREE 131130Z 17001KT 14/10 A3021 RMK A01 T01390097  RH  077%=      5-min Rain = 0
KREE 131135Z 18002KT 14/10 A3021 RMK A01 T01370097  RH  078%=      5-min Rain = 0
KREE 131140Z 15002KT 14/10 A3021 RMK A01 T01350097  RH  079%=      5-min Rain = 0
KREE 131145Z 13002KT 13/10 A3021 RMK A01 T01330096  RH  080%=      5-min Rain = 0
KREE 131150Z 13001KT 13/10 A3022 RMK A01 T01330096  RH  080%=      5-min Rain = 0
KREE 131155Z 12001KT 13/10 A3022 RMK A01 T01340097  RH  079%=      5-min Rain = 0
KREE 131200Z 11001KT 14/10 A3022 RMK A01 T01370098  RH  078%=      5-min Rain = 0
KREE 131205Z 10002KT 14/10 A3022 RMK A01 T01400098  RH  077%=      5-min Rain = 0
KREE 131210Z 10003KT 14/10 A3022 RMK A01 T01400100  RH  078%=      5-min Rain = 0
KREE 131215Z 10004KT 14/10 A3022 RMK A01 T01370101  RH  080%=      5-min Rain = 0
KREE 131220Z 11004KT 14/10 A3022 RMK A01 T01370103  RH  081%=      5-min Rain = 0
KREE 131225Z 11004KT 14/11 A3022 RMK A01 T01400105  RH  081%=      5-min Rain = 0
KREE 131230Z 12004KT 14/11 A3022 RMK A01 T01440108  RH  080%=      5-min Rain = 0
KREE 131235Z 12004KT 15/11 A3023 RMK A01 T01500111  RH  079%=      5-min Rain = 0
KREE 131240Z 13004KT 16/11 A3023 RMK A01 T01570113  RH  076%=      5-min Rain = 0
KREE 131245Z 14005KT 17/11 A3022 RMK A01 T01650114  RH  073%=      5-min Rain = 0
KREE 131250Z 14006KT 17/11 A3022 RMK A01 T01720111  RH  069%=      5-min Rain = 0
KREE 131255Z 15007KT 18/11 A3022 RMK A01 T01750109  RH  066%=      5-min Rain = 0
KREE 131300Z 15006KT 18/11 A3022 RMK A01 T01790109  RH  065%=      5-min Rain = 0
KREE 131305Z 15007KT 18/11 A3022 RMK A01 T01820108  RH  063%=      5-min Rain = 0
KREE 131310Z 15007KT 19/11 A3022 RMK A01 T01860108  RH  062%=      5-min Rain = 0
KREE 131315Z 15008KT 19/11 A3022 RMK A01 T01880106  RH  060%=      5-min Rain = 0
KREE 131320Z 15009KT 19/11 A3022 RMK A01 T01910105  RH  059%=      5-min Rain = 0
KREE 131325Z 15012KT 19/10 A3022 RMK A01 T01930102  RH  056%=      5-min Rain = 0
KREE 131330Z 15012KT 19/10 A3022 RMK A01 T01930100  RH  056%=      5-min Rain = 0
KREE 131335Z 15013KT 20/10 A3022 RMK A01 T01950099  RH  055%=      5-min Rain = 0
KREE 131340Z 15013KT 20/10 A3022 RMK A01 T01960099  RH  054%=      5-min Rain = 0
KREE 131345Z 15013KT 20/10 A3022 RMK A01 T01990100  RH  054%=      5-min Rain = 0
KREE 131350Z 15014KT 20/10 A3022 RMK A01 T02010097  RH  052%=      5-min Rain = 0
KREE 131355Z 15014KT 20/10 A3022 RMK A01 T02030097  RH  052%=      5-min Rain = 0
KREE 131400Z 15015KT 21/10 A3022 RMK A01 T02050098  RH  051%=      5-min Rain = 0
KREE 131405Z 15016KT 21/09 A3022 RMK A01 T02070094  RH  049%=      5-min Rain = 0
KREE 131410Z 15014KT 21/10 A3022 RMK A01 T02080096  RH  049%=      5-min Rain = 0
KREE 131415Z 15015KT 21/10 A3021 RMK A01 T02100096  RH  049%=      5-min Rain = 0
KREE 131420Z 15015KT 21/10 A3021 RMK A01 T02120097  RH  049%=      5-min Rain = 0
KREE 131425Z 15015G21KT 22/10 A3021 RMK A01 T02150098  RH  048%=      5-min Rain = 0
KREE 131430Z 15018KT 21/09 A3021 RMK A01 T02140092  RH  046%=      5-min Rain = 0
KREE 131435Z 15017KT 22/09 A3022 RMK A01 T02160094  RH  047%=      5-min Rain = 0
KREE 131440Z 15016KT 22/10 A3022 RMK A01 T02180097  RH  047%=      5-min Rain = 0
KREE 131445Z 16017G22KT 22/10 A3022 RMK A01 T02170097  RH  047%=      5-min Rain = 0
KREE 131450Z 15015G21KT 22/10 A3022 RMK A01 T02190097  RH  047%=      5-min Rain = 0
KREE 131455Z 17017KT 22/10 A3022 RMK A01 T02200096  RH  046%=      5-min Rain = 0
KREE 131500Z 16017KT 22/10 A3022 RMK A01 T02210095  RH  045%=      5-min Rain = 0
KREE 131505Z 16015KT 22/10 A3022 RMK A01 T02230096  RH  045%=      5-min Rain = 0
KREE 131510Z 17017KT 23/10 A3022 RMK A01 T02250096  RH  045%=      5-min Rain = 0
KREE 131515Z 17017KT 23/10 A3022 RMK A01 T02250097  RH  045%=      5-min Rain = 0
KREE 131520Z 17018KT 23/10 A3022 RMK A01 T02260098  RH  045%=      5-min Rain = 0
KREE 131525Z 17017KT 23/10 A3022 RMK A01 T02260099  RH  045%=      5-min Rain = 0
KREE 131530Z 16016KT 23/10 A3022 RMK A01 T02280104  RH  046%=      5-min Rain = 0
KREE 131535Z 16016KT 23/11 A3021 RMK A01 T02310106  RH  046%=      5-min Rain = 0
KREE 131540Z 18017KT 23/10 A3021 RMK A01 T02290103  RH  045%=      5-min Rain = 0
KREE 131545Z 17018KT 23/10 A3021 RMK A01 T02310102  RH  045%=      5-min Rain = 0
KREE 131550Z 16017G23KT 23/11 A3021 RMK A01 T02330105  RH  045%=      5-min Rain = 0
KREE 131555Z 16017KT 24/11 A3021 RMK A01 T02360106  RH  045%=      5-min Rain = 0
KREE 131600Z 16018G24KT 24/10 A302 RMK A01 T02360104  RH  044%=      5-min Rain = 0
KREE 131605Z 17016G21KT 24/11 A302 RMK A01 T02390108  RH  044%=      5-min Rain = 0
KREE 131610Z 16017KT 24/11 A302 RMK A01 T02400106  RH  043%=      5-min Rain = 0
KREE 131615Z 18017G22KT 24/11 A302 RMK A01 T02420105  RH  043%=      5-min Rain = 0
KREE 131620Z 17018G23KT 24/11 A302 RMK A01 T02410105  RH  043%=      5-min Rain = 0
KREE 131625Z 18017KT 24/11 A302 RMK A01 T02410106  RH  043%=      5-min Rain = 0
KREE 131630Z 17017KT 25/11 A302 RMK A01 T02450111  RH  044%=      5-min Rain = 0
KREE 131635Z 18017G23KT 25/11 A302 RMK A01 T02460114  RH  044%=      5-min Rain = 0
KREE 131640Z 18018G23KT 24/12 A302 RMK A01 T02440115  RH  045%=      5-min Rain = 0
KREE 131645Z 17017G22KT 24/12 A3019 RMK A01 T02440117  RH  046%=      5-min Rain = 0
KREE 131650Z 18016G21KT 25/12 A3019 RMK A01 T02480120  RH  045%=      5-min Rain = 0
KREE 131655Z 17017G23KT 25/12 A3019 RMK A01 T02520124  RH  046%=      5-min Rain = 0
KREE 131700Z 18017KT 25/13 A3019 RMK A01 T02530128  RH  047%=      5-min Rain = 0
KREE 131705Z 17017G24KT 25/13 A3019 RMK A01 T02540131  RH  047%=      5-min Rain = 0
KREE 131710Z 18016G21KT 25/14 A3019 RMK A01 T02530137  RH  049%=      5-min Rain = 0
KREE 131715Z 18016G22KT 26/14 A3019 RMK A01 T02550135  RH  048%=      5-min Rain = 0
KREE 131720Z 17016G22KT 26/14 A3018 RMK A01 T02600141  RH  049%=      5-min Rain = 0
KREE 131725Z 18018G23KT 26/14 A3018 RMK A01 T02580139  RH  049%=      5-min Rain = 0
KREE 131730Z 18016G22KT 26/14 A3018 RMK A01 T02580142  RH  050%=      5-min Rain = 0
KREE 131735Z 18017G25KT 26/15 A3018 RMK A01 T02610146  RH  050%=      5-min Rain = 0
KREE 131740Z 19017G23KT 26/15 A3017 RMK A01 T02600145  RH  050%=      5-min Rain = 0
KREE 131745Z 19016G22KT 26/15 A3017 RMK A01 T02600148  RH  051%=      5-min Rain = 0
KREE 131750Z 18016G21KT 26/15 A3017 RMK A01 T02630148  RH  050%=      5-min Rain = 0
KREE 131755Z 19015G21KT 27/15 A3017 RMK A01 T02650149  RH  050%=      5-min Rain = 0
KREE 131800Z 17014G22KT 27/15 A3017 RMK A01 T02690152  RH  050%=      5-min Rain = 0
KREE 131805Z 19016G21KT 27/15 A3017 RMK A01 T02680149  RH  049%=      5-min Rain = 0
KREE 131810Z 19016KT 27/15 A3016 RMK A01 T02660149  RH  050%=      5-min Rain = 0
KREE 131815Z 18015KT 27/15 A3016 RMK A01 T02690151  RH  050%=      5-min Rain = 0
KREE 131820Z 18016KT 27/15 A3016 RMK A01 T02720149  RH  048%=      5-min Rain = 0
KREE 131825Z 17014G19KT 27/15 A3016 RMK A01 T02740151  RH  048%=      5-min Rain = 0
KREE 131830Z 19017G25KT 28/15 A3015 RMK A01 T02760153  RH  048%=      5-min Rain = 0
KREE 131835Z 18016G22KT 27/15 A3015 RMK A01 T02730152  RH  049%=      5-min Rain = 0
KREE 131840Z 19016KT 28/15 A3015 RMK A01 T02750151  RH  048%=      5-min Rain = 0
KREE 131845Z 19017G22KT 28/15 A3015 RMK A01 T02760150  RH  047%=      5-min Rain = 0
KREE 131850Z 18017G23KT 28/15 A3014 RMK A01 T02780149  RH  046%=      5-min Rain = 0
KREE 131855Z 19015G23KT 28/15 A3014 RMK A01 T02770150  RH  047%=      5-min Rain = 0
KREE 131900Z 17017G25KT 28/15 A3014 RMK A01 T02810151  RH  046%=      5-min Rain = 0
KREE 131905Z 19014G20KT 28/15 A3013 RMK A01 T02830149  RH  045%=      5-min Rain = 0
KREE 131910Z 18017G23KT 28/15 A3013 RMK A01 T02830146  RH  044%=      5-min Rain = 0
KREE 131915Z 18015G21KT 28/15 A3013 RMK A01 T02840150  RH  045%=      5-min Rain = 0
KREE 131920Z 19016G22KT 29/15 A3012 RMK A01 T02850145  RH  043%=      5-min Rain = 0
KREE 131925Z 18014G22KT 28/15 A3012 RMK A01 T02830149  RH  045%=      5-min Rain = 0
KREE 131930Z 18016G23KT 29/15 A3012 RMK A01 T02860149  RH  044%=      5-min Rain = 0
KREE 131935Z 19016G21KT 29/15 A3011 RMK A01 T02900147  RH  043%=      5-min Rain = 0
KREE 131940Z 19016G23KT 29/15 A3011 RMK A01 T02900148  RH  043%=      5-min Rain = 0
KREE 131945Z 17015G21KT 29/14 A3011 RMK A01 T02910144  RH  041%=      5-min Rain = 0
KREE 131950Z 18018G25KT 29/14 A301 RMK A01 T02850140  RH  042%=      5-min Rain = 0
KREE 131955Z 18016G24KT 29/14 A301 RMK A01 T02880143  RH  042%=      5-min Rain = 0
KREE 132000Z 19017G25KT 29/14 A301 RMK A01 T02880137  RH  040%=      5-min Rain = 0
KREE 132005Z 18016G24KT 29/14 A301 RMK A01 T02870141  RH  042%=      5-min Rain = 0
KREE 132010Z 18016G22KT 29/14 A301 RMK A01 T02860140  RH  042%=      5-min Rain = 0
KREE 132015Z 19017G23KT 29/14 A3009 RMK A01 T02880140  RH  041%=      5-min Rain = 0
KREE 132020Z 19017KT 29/14 A3009 RMK A01 T02930141  RH  040%=      5-min Rain = 0
KREE 132025Z 19016G22KT 30/14 A3009 RMK A01 T02970144  RH  040%=      5-min Rain = 0
KREE 132030Z 18016KT 30/14 A3009 RMK A01 T02980144  RH  040%=      5-min Rain = 0
KREE 132035Z 18018KT 30/14 A3008 RMK A01 T03000143  RH  039%=      5-min Rain = 0
KREE 132040Z 18016KT 30/14 A3008 RMK A01 T02950139  RH  039%=      5-min Rain = 0
KREE 132045Z 18015G23KT 30/14 A3008 RMK A01 T03010143  RH  039%=      5-min Rain = 0
KREE 132050Z 18016G21KT 30/14 A3008 RMK A01 T03000143  RH  039%=      5-min Rain = 0
KREE 132055Z 17017G22KT 30/14 A3007 RMK A01 T03000142  RH  039%=      5-min Rain = 0
KREE 132100Z 16016G21KT 30/15 A3007 RMK A01 T02990145  RH  040%=      5-min Rain = 0
KREE 132105Z 18017G31KT 30/15 A3007 RMK A01 T03020145  RH  039%=      5-min Rain = 0
KREE 132110Z 18017G22KT 30/14 A3007 RMK A01 T02980142  RH  039%=      5-min Rain = 0
KREE 132115Z 17019G25KT 30/14 A3006 RMK A01 T02980140  RH  039%=      5-min Rain = 0
KREE 132120Z 17021G28KT 30/14 A3006 RMK A01 T03000142  RH  039%=      5-min Rain = 0
KREE 132125Z 18019G24KT 30/14 A3006 RMK A01 T03000141  RH  039%=      5-min Rain = 0
KREE 132130Z 18018G28KT 30/14 A3005 RMK A01 T03030143  RH  038%=      5-min Rain = 0
KREE 132135Z 19018G25KT 30/14 A3005 RMK A01 T03030140  RH  038%=      5-min Rain = 0
KREE 132140Z 18018G24KT 30/14 A3005 RMK A01 T03030139  RH  037%=      5-min Rain = 0
KREE 132145Z 18016G21KT 30/14 A3005 RMK A01 T03020138  RH  037%=      5-min Rain = 0
KREE 132150Z 19018G23KT 30/14 A3004 RMK A01 T03030140  RH  038%=      5-min Rain = 0
KREE 132155Z 17018G24KT 30/14 A3004 RMK A01 T03030137  RH  037%=      5-min Rain = 0
KREE 132200Z 18017G23KT 30/14 A3004 RMK A01 T03040138  RH  037%=      5-min Rain = 0
KREE 132205Z 18016G23KT 30/14 A3003 RMK A01 T03040140  RH  038%=      5-min Rain = 0
KREE 132210Z 18019G25KT 30/14 A3003 RMK A01 T03020135  RH  037%=      5-min Rain = 0
KREE 132215Z 18019G26KT 30/14 A3003 RMK A01 T03010135  RH  037%=      5-min Rain = 0
KREE 132220Z 19018G24KT 30/14 A3003 RMK A01 T03040137  RH  037%=      5-min Rain = 0
KREE 132225Z 17021G26KT 30/13 A3003 RMK A01 T03020134  RH  037%=      5-min Rain = 0
KREE 132230Z 17019G25KT 30/14 A3002 RMK A01 T03020135  RH  037%=      5-min Rain = 0
KREE 132235Z 18019G26KT 30/13 A3002 RMK A01 T03000132  RH  036%=      5-min Rain = 0
KREE 132240Z 17018G28KT 30/13 A3002 RMK A01 T02990134  RH  037%=      5-min Rain = 0
KREE 132245Z 18021G28KT 30/13 A3002 RMK A01 T03010132  RH  036%=      5-min Rain = 0
KREE 132250Z 18020KT 30/13 A3001 RMK A01 T03020132  RH  036%=      5-min Rain = 0
KREE 132255Z 19019G24KT 30/14 A3001 RMK A01 T03010135  RH  037%=      5-min Rain = 0
KREE 132300Z 18019G26KT 30/13 A3001 RMK A01 T03020133  RH  036%=      5-min Rain = 0
KREE 132305Z 18018G25KT 30/13 A3001 RMK A01 T03020134  RH  037%=      5-min Rain = 0
KREE 132310Z 18020G28KT 30/14 A30 RMK A01 T03010136  RH  037%=      5-min Rain = 0
KREE 132315Z 18021G26KT 30/14 A30 RMK A01 T03000135  RH  037%=      5-min Rain = 0
KREE 132320Z 17019G25KT 30/13 A30 RMK A01 T02980134  RH  037%=      5-min Rain = 0
KREE 132325Z 18021G27KT 30/13 A30 RMK A01 T02960133  RH  038%=      5-min Rain = 0
KREE 132330Z 18017G23KT 30/14 A30 RMK A01 T02950135  RH  038%=      5-min Rain = 0
KREE 132335Z 19017G23KT 29/13 A30 RMK A01 T02930133  RH  038%=      5-min Rain = 0
KREE 132340Z 18018G23KT 29/13 A30 RMK A01 T02920133  RH  038%=      5-min Rain = 0
KREE 132345Z 18019KT 29/13 A30 RMK A01 T02930132  RH  038%=      5-min Rain = 0
KREE 132350Z 18019KT 29/13 A30 RMK A01 T02920131  RH  038%=      5-min Rain = 0
KREE 132355Z 18020G25KT 30/13 A2999 RMK A01 T02950133  RH  038%=      5-min Rain = 0
KREE 140000Z 18018G25KT 30/14 A2999 RMK A01 T02970135  RH  038%=      5-min Rain = 0
KREE 140005Z 18016G21KT 30/14 A2999 RMK A01 T02990136  RH  038%=      5-min Rain = 0
KREE 140010Z 18020G25KT 30/13 A2999 RMK A01 T02970134  RH  038%=      5-min Rain = 0
KREE 140015Z 18019G26KT 30/13 A30 RMK A01 T02950133  RH  038%=      5-min Rain = 0
KREE 140020Z 18019G24KT 29/13 A30 RMK A01 T02920131  RH  038%=      5-min Rain = 0
KREE 140025Z 18018KT 29/13 A30 RMK A01 T02910133  RH  039%=      5-min Rain = 0
KREE 140030Z 18020KT 29/13 A2999 RMK A01 T02910134  RH  039%=      5-min Rain = 0
KREE 140035Z 18020G26KT 29/13 A2999 RMK A01 T02900133  RH  039%=      5-min Rain = 0
KREE 140040Z 18020G26KT 29/13 A2999 RMK A01 T02880134  RH  040%=      5-min Rain = 0
KREE 140045Z 18021G27KT 29/13 A2999 RMK A01 T02880134  RH  040%=      5-min Rain = 0
KREE 140050Z 18018G24KT 29/13 A2999 RMK A01 T02870134  RH  040%=      5-min Rain = 0
KREE 140055Z 18018G23KT 29/13 A2999 RMK A01 T02860134  RH  040%=      5-min Rain = 0
KREE 140100Z 17019G25KT 28/14 A2998 RMK A01 T02830135  RH  041%=      5-min Rain = 0
KREE 140105Z 17020G27KT 28/14 A2998 RMK A01 T02820135  RH  041%=      5-min Rain = 0
KREE 140110Z 17020G26KT 28/13 A2999 RMK A01 T02800134  RH  041%=      5-min Rain = 0
KREE 140115Z 18018KT 28/13 A2999 RMK A01 T02790134  RH  042%=      5-min Rain = 0
KREE 140120Z 17016G22KT 28/14 A2998 RMK A01 T02760136  RH  043%=      5-min Rain = 0
KREE 140125Z 17017G24KT 28/13 A2998 RMK A01 T02750134  RH  043%=      5-min Rain = 0
KREE 140130Z 17017G23KT 27/14 A2998 RMK A01 T02730135  RH  043%=      5-min Rain = 0
KREE 140135Z 17017G22KT 27/13 A2998 RMK A01 T02730134  RH  043%=      5-min Rain = 0
KREE 140140Z 17016KT 27/14 A2998 RMK A01 T02710135  RH  044%=      5-min Rain = 0
KREE 140145Z 17017KT 27/13 A2998 RMK A01 T02690134  RH  044%=      5-min Rain = 0
KREE 140150Z 17017KT 27/14 A2998 RMK A01 T02690135  RH  044%=      5-min Rain = 0
KREE 140155Z 17016KT 27/14 A2998 RMK A01 T02670136  RH  045%=      5-min Rain = 0
KREE 140200Z 17016KT 27/14 A2997 RMK A01 T02660136  RH  046%=      5-min Rain = 0
KREE 140205Z 17015KT 26/14 A2997 RMK A01 T02640137  RH  046%=      5-min Rain = 0
KREE 140210Z 17015KT 26/14 A2997 RMK A01 T02640138  RH  047%=      5-min Rain = 0
KREE 140215Z 17013KT 26/14 A2998 RMK A01 T02610139  RH  048%=      5-min Rain = 0
KREE 140220Z 17013KT 26/14 A2998 RMK A01 T02600139  RH  048%=      5-min Rain = 0
KREE 140225Z 17013KT 26/14 A2998 RMK A01 T02590138  RH  048%=      5-min Rain = 0
KREE 140230Z 17013KT 26/14 A2998 RMK A01 T02580139  RH  049%=      5-min Rain = 0
KREE 140235Z 17013KT 26/14 A2998 RMK A01 T02570138  RH  049%=      5-min Rain = 0
KREE 140240Z 17013KT 26/14 A2999 RMK A01 T02570138  RH  049%=      5-min Rain = 0
KREE 140245Z 17013KT 26/14 A2999 RMK A01 T02550139  RH  050%=      5-min Rain = 0
KREE 140250Z 17013KT 25/14 A2999 RMK A01 T02540140  RH  050%=      5-min Rain = 0
KREE 140255Z 17013KT 25/14 A2999 RMK A01 T02520140  RH  051%=      5-min Rain = 0
KREE 140300Z 17013KT 25/14 A2999 RMK A01 T02520141  RH  051%=      5-min Rain = 0
KREE 140305Z 17013KT 25/14 A2999 RMK A01 T02500142  RH  052%=      5-min Rain = 0
KREE 140310Z 17014KT 25/14 A30 RMK A01 T02510141  RH  052%=      5-min Rain = 0
KREE 140315Z 17014KT 25/14 A30 RMK A01 T02500142  RH  052%=      5-min Rain = 0
KREE 140320Z 17014KT 25/14 A30 RMK A01 T02500143  RH  053%=      5-min Rain = 0
KREE 140325Z 17014KT 25/14 A2999 RMK A01 T02480144  RH  053%=      5-min Rain = 0
KREE 140330Z 17015KT 25/14 A2999 RMK A01 T02470144  RH  054%=      5-min Rain = 0
KREE 140335Z 17016KT 25/15 A2999 RMK A01 T02470145  RH  054%=      5-min Rain = 0
KREE 140340Z 16015KT 25/15 A2999 RMK A01 T02470145  RH  054%=      5-min Rain = 0
KREE 140345Z 16016KT 25/15 A2999 RMK A01 T02460146  RH  055%=      5-min Rain = 0
KREE 140350Z 16017G22KT 25/15 A2999 RMK A01 T02460146  RH  055%=      5-min Rain = 0
KREE 140355Z 16017G22KT 25/15 A2999 RMK A01 T02470145  RH  054%=      5-min Rain = 0
KREE 140400Z 16016G22KT 25/15 A2999 RMK A01 T02460145  RH  055%=      5-min Rain = 0
KREE 140405Z 16016KT 25/15 A2999 RMK A01 T02450145  RH  055%=      5-min Rain = 0
KREE 140410Z 16016KT 25/15 A2999 RMK A01 T02450145  RH  055%=      5-min Rain = 0
KREE 140415Z 16016KT 24/15 A2999 RMK A01 T02440145  RH  055%=      5-min Rain = 0
KREE 140420Z 16016G21KT 24/15 A2999 RMK A01 T02430146  RH  056%=      5-min Rain = 0
KREE 140425Z 16016G21KT 24/15 A30 RMK A01 T02430146  RH  056%=      5-min Rain = 0
KREE 140430Z 16017G22KT 24/15 A30 RMK A01 T02420146  RH  056%=      5-min Rain = 0
KREE 140435Z 16016KT 24/15 A30 RMK A01 T02420146  RH  056%=      5-min Rain = 0
KREE 140440Z 16017KT 24/15 A30 RMK A01 T02400147  RH  057%=      5-min Rain = 0
KREE 140445Z 17017KT 24/15 A30 RMK A01 T02400147  RH  057%=      5-min Rain = 0
KREE 140450Z 17016G21KT 24/15 A30 RMK A01 T02380147  RH  058%=      5-min Rain = 0
KREE 140455Z 17017KT 24/15 A30 RMK A01 T02380147  RH  058%=      5-min Rain = 0

Page generated in 0.0178 seconds.